Terminal Aerodrome Forecast
Issued by NWS Sterling, VA

Home | Current Version | Previous Version | Text Only | Print | Product List | Glossary On
Versions: 1 2 3 4 5 6 7 8 9 10 11 12 13 14 15 16 17 18 19 20 21
000
FTUS41 KLWX 012300
TAFBWI
TAF
KBWI 012340Z 0200/0306 18004KT P6SM FEW035 SCT070 OVC120
     FM020400 11004KT P6SM OVC020
     FM020800 07005KT P6SM SCT008 OVC010
     FM020900 06005KT P6SM -SHRA SCT008 OVC010
     FM021400 05007KT P6SM -SHRA OVC015
     FM021800 06007KT P6SM SCT020 BKN035=

USA.gov is the U.S. government's official web portal to all federal, state and local government web resources and services.